createdAt,value
2019-05-21T00:01:37.050Z,13.02
2019-05-21T00:04:07.081Z,13.13
2019-05-21T00:06:37.080Z,13.10
2019-05-21T00:09:07.164Z,13.03
2019-05-21T00:11:37.251Z,12.96
2019-05-21T00:14:07.248Z,12.98
2019-05-21T00:16:37.317Z,12.98
2019-05-21T00:19:07.414Z,12.93
2019-05-21T00:21:37.418Z,12.91
2019-05-21T00:24:07.492Z,12.91
2019-05-21T00:26:37.609Z,12.88
2019-05-21T00:29:43.783Z,12.84
2019-05-21T00:32:50.151Z,12.85
2019-05-21T00:35:56.669Z,12.87
2019-05-21T00:39:03.167Z,12.84
2019-05-21T00:42:01.741Z,12.66
2019-05-21T00:44:36.690Z,12.76
2019-05-21T00:47:09.117Z,12.83
2019-05-21T00:49:39.367Z,12.85
2019-05-21T00:52:09.740Z,12.64
2019-05-21T00:54:39.942Z,12.69
2019-05-21T00:57:09.995Z,12.67
2019-05-21T00:59:39.985Z,12.70
2019-05-21T01:02:10.119Z,12.55
2019-05-21T01:04:40.102Z,12.56
2019-05-21T01:07:10.103Z,12.58
2019-05-21T01:09:41.512Z,12.58
2019-05-21T01:12:11.525Z,12.54
2019-05-21T01:14:41.593Z,12.40
2019-05-21T01:17:11.787Z,12.36
2019-05-21T01:19:41.792Z,12.36
2019-05-21T01:22:11.871Z,12.35
2019-05-21T01:24:41.904Z,12.33
2019-05-21T01:27:11.910Z,12.31
2019-05-21T01:29:41.907Z,12.22
2019-05-21T01:32:11.942Z,12.18
2019-05-21T01:34:41.937Z,12.24
2019-05-21T01:37:11.998Z,12.16
2019-05-21T01:39:41.986Z,12.18
2019-05-21T01:42:11.989Z,12.18
2019-05-21T01:44:41.989Z,12.11
2019-05-21T01:47:11.990Z,12.11
2019-05-21T01:49:42.057Z,12.04
2019-05-21T01:52:12.145Z,11.94
2019-05-21T01:54:42.102Z,11.93
2019-05-21T01:57:12.102Z,11.81
2019-05-21T01:59:42.110Z,11.74
2019-05-21T02:02:12.115Z,11.78
2019-05-21T02:04:42.140Z,11.81
2019-05-21T02:07:12.133Z,11.82
2019-05-21T02:10:00.233Z,11.84
2019-05-21T02:12:30.239Z,11.81
2019-05-21T02:15:00.235Z,11.81
2019-05-21T02:17:30.246Z,11.71
2019-05-21T02:20:00.314Z,11.75
2019-05-21T02:22:30.346Z,11.74
2019-05-21T02:25:01.319Z,11.68
2019-05-21T02:27:31.448Z,11.68
2019-05-21T02:30:03.172Z,11.62
2019-05-21T02:32:33.613Z,11.44
2019-05-21T02:35:04.355Z,11.38
2019-05-21T02:37:34.511Z,11.53
2019-05-21T02:40:05.818Z,11.56
2019-05-21T02:42:36.158Z,11.61
2019-05-21T02:45:08.009Z,11.52
2019-05-21T02:47:38.015Z,11.51
2019-05-21T02:50:08.716Z,11.52
2019-05-21T02:52:38.724Z,11.45
2019-05-21T02:55:09.440Z,11.41
2019-05-21T02:57:41.108Z,11.23
2019-05-21T03:00:38.662Z,11.21
2019-05-21T03:03:08.447Z,11.28
2019-05-21T03:05:38.536Z,11.28
2019-05-21T03:23:22.566Z,11.45
2019-05-21T03:25:52.569Z,11.12
2019-05-21T03:28:22.606Z,11.42
2019-05-21T03:30:52.603Z,11.48
2019-05-21T03:33:23.811Z,11.45
2019-05-21T03:35:53.830Z,11.50
2019-05-21T03:38:23.862Z,11.48
2019-05-21T03:40:53.882Z,11.51
2019-05-21T03:43:23.916Z,11.60
2019-05-21T03:45:54.026Z,11.66
2019-05-21T03:48:24.119Z,11.70
2019-05-21T03:50:54.399Z,11.75
2019-05-21T03:53:24.429Z,11.75
2019-05-21T03:55:54.424Z,11.72
2019-05-21T03:58:24.502Z,11.80
2019-05-21T04:00:55.595Z,11.95
2019-05-21T04:03:25.593Z,12.02
2019-05-21T04:05:55.615Z,12.04
2019-05-21T04:08:25.647Z,12.13
2019-05-21T04:10:55.638Z,12.22
2019-05-21T04:13:25.928Z,12.28
2019-05-21T04:16:00.315Z,12.35
2019-05-21T04:18:31.973Z,12.51
2019-05-21T04:21:02.013Z,12.60
2019-05-21T04:23:32.055Z,12.55
2019-05-21T04:26:02.062Z,12.73
2019-05-21T04:28:32.082Z,12.87
2019-05-21T04:31:02.121Z,12.96
2019-05-21T04:33:32.133Z,13.14
2019-05-21T04:36:02.176Z,13.15
2019-05-21T04:38:32.165Z,13.18
2019-05-21T04:41:02.194Z,13.32
2019-05-21T04:43:32.187Z,13.57
2019-05-21T04:46:02.229Z,13.67
2019-05-21T04:48:32.272Z,13.79
2019-05-21T04:51:02.298Z,13.85
2019-05-21T04:53:32.354Z,13.96
2019-05-21T04:56:02.419Z,14.04
2019-05-21T04:58:32.433Z,14.11
2019-05-21T05:01:02.508Z,14.26
2019-05-21T05:03:32.523Z,14.35
2019-05-21T05:06:02.589Z,14.41
2019-05-21T05:08:32.600Z,14.49
2019-05-21T05:11:02.842Z,14.47
2019-05-21T05:13:32.960Z,14.58
2019-05-21T05:16:04.339Z,14.84
2019-05-21T05:18:35.665Z,14.96
2019-05-21T05:21:05.788Z,14.93
2019-05-21T05:23:35.874Z,15.13
2019-05-21T05:26:05.883Z,15.14
2019-05-21T05:28:35.950Z,15.15
2019-05-21T05:31:06.056Z,15.21
2019-05-21T05:33:36.084Z,15.21
2019-05-21T05:36:06.078Z,15.32
2019-05-21T05:38:36.124Z,15.40
2019-05-21T05:41:06.300Z,15.42
2019-05-21T05:43:36.322Z,15.51
2019-05-21T05:46:06.519Z,15.56
2019-05-21T05:48:38.184Z,15.73
2019-05-21T05:51:08.785Z,15.84
2019-05-21T05:53:56.393Z,15.99
2019-05-21T05:56:27.968Z,16.11
2019-05-21T05:58:58.045Z,16.33
2019-05-21T06:01:29.789Z,18.69
2019-05-21T06:03:59.802Z,19.06
2019-05-21T06:06:29.829Z,19.41
2019-05-21T06:08:59.896Z,19.38
2019-05-21T06:11:29.960Z,18.74
2019-05-21T06:13:59.985Z,19.41
2019-05-21T06:16:30.088Z,19.96
2019-05-21T06:19:00.081Z,19.65
2019-05-21T06:21:30.128Z,19.76
2019-05-21T06:24:00.124Z,19.89
2019-05-21T06:26:30.149Z,18.99
2019-05-21T06:29:00.154Z,19.46
2019-05-21T06:31:30.205Z,19.78
2019-05-21T06:34:00.215Z,19.33
2019-05-21T06:36:30.299Z,19.13
2019-05-21T06:39:00.466Z,19.65
2019-05-21T06:41:32.381Z,19.59
2019-05-21T06:44:02.469Z,19.34
2019-05-21T06:46:32.573Z,19.45
2019-05-21T06:49:02.583Z,19.82
2019-05-21T06:51:32.642Z,20.01
2019-05-21T06:54:02.875Z,20.16
2019-05-21T06:56:32.848Z,20.00
2019-05-21T06:59:03.968Z,19.33
2019-05-21T07:01:33.978Z,19.56
2019-05-21T07:04:04.060Z,19.58
2019-05-21T07:06:34.076Z,20.17
2019-05-21T07:09:05.673Z,19.77
2019-05-21T07:11:35.789Z,19.53
2019-05-21T07:14:05.798Z,19.56
2019-05-21T07:16:35.822Z,19.62
2019-05-21T07:19:05.932Z,19.50
2019-05-21T07:21:35.959Z,19.92
2019-05-21T07:24:06.058Z,19.89
2019-05-21T07:26:36.093Z,20.03
2019-05-21T07:29:06.370Z,20.00
2019-05-21T07:31:37.634Z,20.16
2019-05-21T07:34:07.649Z,20.50
2019-05-21T07:36:37.692Z,20.56
2019-05-21T07:39:07.908Z,20.59
2019-05-21T07:41:37.901Z,20.59
2019-05-21T07:44:07.920Z,20.72
2019-05-21T07:46:39.685Z,20.90
2019-05-21T07:49:09.805Z,21.01
2019-05-21T07:51:39.944Z,21.03
2019-05-21T07:54:10.073Z,21.17
2019-05-21T07:56:40.081Z,21.22
2019-05-21T07:59:11.072Z,21.51
2019-05-21T08:01:41.107Z,21.38
2019-05-21T08:04:11.158Z,21.47
2019-05-21T08:06:41.294Z,20.92
2019-05-21T08:09:14.714Z,21.24
2019-05-21T08:11:46.801Z,21.45
2019-05-21T08:14:15.926Z,21.61
2019-05-21T08:16:46.000Z,21.80
2019-05-21T08:19:16.026Z,21.89
2019-05-21T08:21:46.013Z,22.11
2019-05-21T08:24:16.028Z,22.08
2019-05-21T08:26:46.033Z,22.26
2019-05-21T08:29:16.063Z,22.12
2019-05-21T08:31:46.049Z,22.34
2019-05-21T08:34:16.169Z,22.22
2019-05-21T08:36:47.291Z,21.62
2019-05-21T08:39:28.226Z,21.91
2019-05-21T08:41:48.997Z,22.32
2019-05-21T08:44:19.152Z,22.86
2019-05-21T08:46:49.193Z,23.11
2019-05-21T08:49:19.179Z,23.30
2019-05-21T08:51:49.212Z,23.67
2019-05-21T08:54:20.852Z,23.82
2019-05-21T08:56:50.859Z,23.91
2019-05-21T08:59:20.894Z,23.80
2019-05-21T09:01:50.892Z,23.91
2019-05-21T09:04:20.950Z,23.86
2019-05-21T09:06:50.998Z,23.90
2019-05-21T09:09:21.011Z,23.76
2019-05-21T09:11:51.130Z,23.20
2019-05-21T09:14:21.177Z,23.98
2019-05-21T09:16:51.278Z,23.84
2019-05-21T09:19:21.257Z,23.77
2019-05-21T09:21:51.448Z,24.39
2019-05-21T09:24:21.492Z,24.90
2019-05-21T09:26:51.568Z,25.19
2019-05-21T09:29:21.650Z,24.99
2019-05-21T09:31:51.622Z,24.91
2019-05-21T09:34:21.636Z,24.72
2019-05-21T09:36:51.806Z,24.84
2019-05-21T09:39:21.827Z,25.36
2019-05-21T09:41:51.922Z,24.91
2019-05-21T09:44:21.919Z,24.58
2019-05-21T09:46:52.139Z,24.97
2019-05-21T09:49:22.215Z,25.28
2019-05-21T09:51:52.278Z,24.69
2019-05-21T09:54:22.287Z,25.26
2019-05-21T09:56:52.333Z,24.65
2019-05-21T09:59:33.060Z,24.22
2019-05-21T10:02:04.795Z,24.14
2019-05-21T10:04:34.770Z,24.64
2019-05-21T10:07:05.044Z,24.90
2019-05-21T10:09:35.150Z,25.45
2019-05-21T10:12:05.485Z,26.33
2019-05-21T10:14:35.486Z,25.73
2019-05-21T10:17:05.632Z,25.68
2019-05-21T10:19:35.798Z,26.10
2019-05-21T10:22:06.197Z,26.16
2019-05-21T10:24:36.342Z,26.23
2019-05-21T10:27:06.503Z,26.36
2019-05-21T10:29:36.489Z,26.34
2019-05-21T10:32:06.579Z,26.24
2019-05-21T10:34:36.643Z,25.58
2019-05-21T10:37:06.655Z,25.64
2019-05-21T10:39:36.777Z,25.57
2019-05-21T10:42:06.987Z,25.52
2019-05-21T10:44:36.994Z,25.81
2019-05-21T10:47:07.337Z,25.67
2019-05-21T10:49:37.364Z,25.32
2019-05-21T10:52:07.360Z,25.46
2019-05-21T10:54:37.469Z,25.23
2019-05-21T10:57:07.463Z,25.17
2019-05-21T10:59:37.475Z,25.19
2019-05-21T11:02:11.899Z,25.60
2019-05-21T11:04:43.535Z,25.92
2019-05-21T11:07:15.431Z,26.26
2019-05-21T11:09:45.405Z,26.82
2019-05-21T11:12:15.536Z,25.73
2019-05-21T11:14:45.575Z,25.63
2019-05-21T11:17:16.639Z,25.45
2019-05-21T11:19:46.768Z,25.88
2019-05-21T11:22:16.780Z,25.51
2019-05-21T11:24:46.776Z,25.53
2019-05-21T11:27:16.844Z,25.36
2019-05-21T11:29:46.894Z,24.94
2019-05-21T11:32:16.966Z,24.89
2019-05-21T11:34:50.027Z,24.32
2019-05-21T11:37:18.742Z,24.40
2019-05-21T11:39:48.816Z,24.62
2019-05-21T11:42:18.835Z,24.61
2019-05-21T11:44:48.890Z,24.70
2019-05-21T11:47:18.885Z,24.63
2019-05-21T11:49:48.895Z,24.49
2019-05-21T11:52:18.984Z,24.97
2019-05-21T11:54:49.019Z,24.91
2019-05-21T11:57:19.020Z,25.05
2019-05-21T11:59:49.059Z,25.43
2019-05-21T12:02:19.049Z,26.07
2019-05-21T12:04:49.100Z,26.24
2019-05-21T12:07:19.073Z,26.11
2019-05-21T12:09:49.342Z,25.71
2019-05-21T12:12:19.614Z,25.50
2019-05-21T12:14:49.671Z,25.21
2019-05-21T12:17:19.805Z,25.06
2019-05-21T12:19:49.808Z,24.54
2019-05-21T12:22:19.964Z,24.44
2019-05-21T12:24:50.015Z,25.06
2019-05-21T12:27:19.994Z,25.24
2019-05-21T12:29:50.059Z,26.03
2019-05-21T12:32:21.306Z,25.88
2019-05-21T12:34:51.433Z,25.42
2019-05-21T12:37:21.412Z,25.15
2019-05-21T12:39:51.556Z,25.36
2019-05-21T12:42:21.564Z,25.42
2019-05-21T12:44:51.579Z,25.11
2019-05-21T12:47:21.554Z,25.06
2019-05-21T12:49:51.837Z,25.69
2019-05-21T12:52:21.826Z,25.55
2019-05-21T12:54:52.030Z,25.89
2019-05-21T12:57:22.127Z,25.64
2019-05-21T12:59:52.419Z,25.36
2019-05-21T13:02:22.486Z,25.33
2019-05-21T13:04:52.479Z,25.78
2019-05-21T13:07:22.589Z,26.23
2019-05-21T13:09:52.784Z,26.26
2019-05-21T13:12:22.777Z,26.19
2019-05-21T13:14:52.830Z,26.00
2019-05-21T13:17:22.801Z,25.77
2019-05-21T13:19:53.208Z,25.44
2019-05-21T13:22:23.198Z,25.55
2019-05-21T13:24:53.376Z,25.45
2019-05-21T13:27:23.361Z,25.33
2019-05-21T13:29:53.445Z,25.32
2019-05-21T13:32:23.433Z,25.52
2019-05-21T13:34:53.487Z,25.34
2019-05-21T13:37:23.548Z,25.12
2019-05-21T14:00:35.169Z,23.34
2019-05-21T14:03:06.783Z,23.05
2019-05-21T14:05:38.499Z,22.98
2019-05-21T14:08:08.518Z,23.00
2019-05-21T14:10:39.049Z,22.83
2019-05-21T14:13:09.422Z,22.88
2019-05-21T14:15:39.485Z,22.94
2019-05-21T14:18:09.833Z,23.02
2019-05-21T14:20:39.813Z,23.03
2019-05-21T14:23:09.866Z,22.98
2019-05-21T14:25:39.934Z,23.09
2019-05-21T14:28:10.078Z,23.70
2019-05-21T14:30:40.181Z,24.08
2019-05-21T14:33:10.240Z,24.25
2019-05-21T14:35:40.741Z,24.62
2019-05-21T14:38:10.754Z,24.53
2019-05-21T14:40:40.829Z,24.76
2019-05-21T14:43:11.002Z,25.14
2019-05-21T14:45:41.112Z,25.27
2019-05-21T14:48:11.112Z,25.51
2019-05-21T14:50:41.165Z,25.49
2019-05-21T14:53:11.318Z,25.74
2019-05-21T14:55:41.395Z,25.87
2019-05-21T14:58:11.373Z,26.02
2019-05-21T15:00:41.631Z,26.24
2019-05-21T15:03:24.231Z,26.11
2019-05-21T15:05:43.448Z,26.37
2019-05-21T15:08:13.451Z,26.20
2019-05-21T15:10:49.291Z,26.42
2019-05-21T15:13:16.411Z,26.41
2019-05-21T15:15:46.477Z,26.11
2019-05-21T15:18:21.337Z,26.17
2019-05-21T15:20:52.687Z,26.34
2019-05-21T15:23:22.671Z,26.00
2019-05-21T15:25:52.650Z,26.35
2019-05-21T15:28:22.638Z,26.18
2019-05-21T15:30:52.861Z,26.15
2019-05-21T15:33:22.990Z,26.40
2019-05-21T15:35:52.970Z,26.24
2019-05-21T15:38:23.045Z,26.21
2019-05-21T15:41:08.905Z,26.28
2019-05-21T15:43:24.768Z,26.75
2019-05-21T15:45:54.820Z,25.77
2019-05-21T15:48:26.609Z,25.61
2019-05-21T15:50:56.567Z,25.50
2019-05-21T15:53:26.552Z,24.56
2019-05-21T15:55:56.556Z,24.46
2019-05-21T15:58:27.075Z,24.37
2019-05-21T16:00:57.224Z,24.59
2019-05-21T16:03:27.305Z,24.46
2019-05-21T16:05:57.423Z,24.46
2019-05-21T16:08:28.606Z,24.84
2019-05-21T16:10:58.603Z,25.09
2019-05-21T16:13:28.686Z,25.43
2019-05-21T16:15:58.705Z,25.36
2019-05-21T16:18:28.739Z,24.92
2019-05-21T16:20:58.717Z,24.53
2019-05-21T16:23:28.800Z,24.65
2019-05-21T16:25:58.869Z,24.06
2019-05-21T16:28:28.893Z,24.05
2019-05-21T16:30:58.889Z,23.69
2019-05-21T16:33:28.951Z,23.43
2019-05-21T16:35:58.977Z,23.44
2019-05-21T16:38:29.354Z,23.14
2019-05-21T16:40:59.430Z,23.45
2019-05-21T16:43:29.448Z,23.69
2019-05-21T16:45:59.430Z,23.05
2019-05-21T16:48:29.476Z,22.69
2019-05-21T16:50:59.470Z,23.10
2019-05-21T16:53:29.477Z,22.71
2019-05-21T16:55:59.517Z,23.01
2019-05-21T16:58:29.623Z,23.04
2019-05-21T17:00:59.831Z,22.62
2019-05-21T17:03:29.811Z,22.67
2019-05-21T17:05:59.880Z,22.68
2019-05-21T17:08:30.024Z,22.55
2019-05-21T17:11:00.008Z,22.43
2019-05-21T17:13:30.048Z,22.50
2019-05-21T17:16:00.000Z,22.52
2019-05-21T17:18:29.993Z,22.55
2019-05-21T17:20:59.986Z,22.48
2019-05-21T17:23:29.988Z,22.52
2019-05-21T17:25:59.970Z,22.47
2019-05-21T17:28:29.994Z,22.42
2019-05-21T17:31:00.079Z,22.18
2019-05-21T17:33:30.179Z,22.21
2019-05-21T17:36:00.253Z,22.07
2019-05-21T17:38:30.410Z,22.36
2019-05-21T17:43:29.261Z,22.11
2019-05-21T17:45:59.391Z,22.18
2019-05-21T17:48:29.532Z,22.03
2019-05-21T17:50:59.647Z,21.96
2019-05-21T17:53:29.644Z,22.08
2019-05-21T17:55:59.671Z,22.09
2019-05-21T17:58:31.624Z,21.92
2019-05-21T18:01:03.472Z,21.70
2019-05-21T18:03:33.516Z,21.91
2019-05-21T18:06:05.024Z,21.82
2019-05-21T18:08:35.259Z,21.79
2019-05-21T18:11:05.683Z,21.58
2019-05-21T18:13:37.086Z,21.72
2019-05-21T18:16:09.043Z,21.69
2019-05-21T18:18:39.167Z,21.39
2019-05-21T18:21:09.441Z,21.62
2019-05-21T18:23:39.551Z,21.74
2019-05-21T18:26:10.324Z,21.56
2019-05-21T18:28:40.777Z,21.60
2019-05-21T18:31:11.024Z,21.60
2019-05-21T18:33:41.139Z,21.44
2019-05-21T18:36:11.148Z,21.42
2019-05-21T18:38:42.257Z,21.34
2019-05-21T18:41:12.692Z,21.28
2019-05-21T18:43:42.785Z,21.27
2019-05-21T18:46:12.906Z,21.14
2019-05-21T18:48:42.984Z,21.10
2019-05-21T18:51:13.013Z,20.98
2019-05-21T18:53:43.043Z,21.05
2019-05-21T18:56:13.041Z,20.92
2019-05-21T18:58:43.494Z,20.91
2019-05-21T19:01:13.898Z,20.77
2019-05-21T19:03:43.986Z,20.77
2019-05-21T19:06:14.065Z,20.84
2019-05-21T19:08:51.541Z,20.73
2019-05-21T19:11:22.759Z,20.73
2019-05-21T19:13:52.892Z,20.70
2019-05-21T19:16:22.893Z,20.67
2019-05-21T19:18:52.878Z,20.63
2019-05-21T19:21:23.048Z,20.65
2019-05-21T19:23:53.106Z,20.48
2019-05-21T19:26:23.365Z,20.42
2019-05-21T19:28:53.347Z,20.42
2019-05-21T19:31:23.361Z,20.41
2019-05-21T19:33:53.610Z,20.38
2019-05-21T19:36:23.581Z,20.31
2019-05-21T19:38:53.677Z,20.36
2019-05-21T19:41:23.691Z,20.23
2019-05-21T19:43:53.841Z,20.27
2019-05-21T19:46:23.934Z,20.05
2019-05-21T19:48:53.927Z,20.10
2019-05-21T19:51:23.929Z,20.05
2019-05-21T19:53:54.389Z,20.01
2019-05-21T19:56:24.645Z,19.96
2019-05-21T19:58:54.723Z,19.85
2019-05-21T20:01:25.097Z,19.76
2019-05-21T20:03:55.373Z,19.77
2019-05-21T20:06:25.417Z,19.69
2019-05-21T20:08:55.438Z,19.59
2019-05-21T20:11:25.783Z,19.61
2019-05-21T20:13:55.878Z,19.51
2019-05-21T20:16:27.396Z,19.41
2019-05-21T20:18:57.396Z,19.32
2019-05-21T20:21:27.829Z,19.10
2019-05-21T20:23:58.034Z,19.16
2019-05-21T20:26:30.206Z,19.17
2019-05-21T20:29:00.675Z,19.07
2019-05-21T20:31:30.804Z,18.97
2019-05-21T20:34:02.243Z,18.89
2019-05-21T20:36:32.296Z,18.85
2019-05-21T20:39:02.484Z,18.88
2019-05-21T20:41:34.235Z,18.82
2019-05-21T20:44:04.480Z,18.82
2019-05-21T20:46:34.774Z,18.80
2019-05-21T20:49:06.006Z,18.69
2019-05-21T20:51:37.519Z,18.61
2019-05-21T20:54:08.224Z,18.29
2019-05-21T20:56:40.113Z,18.23
2019-05-21T20:59:10.365Z,18.19
2019-05-21T21:01:41.281Z,18.36
2019-05-21T21:04:11.790Z,18.43
2019-05-21T21:06:42.673Z,18.49
2019-05-21T21:09:13.639Z,18.44
2019-05-21T21:11:43.886Z,18.44
2019-05-21T21:14:18.260Z,18.37
2019-05-21T21:16:48.345Z,18.44
2019-05-21T21:19:18.511Z,18.53
2019-05-21T21:21:48.879Z,18.44
2019-05-21T21:24:19.161Z,18.37
2019-05-21T21:26:49.271Z,18.35
2019-05-21T21:29:19.310Z,18.31
2019-05-21T21:31:49.368Z,18.32
2019-05-21T21:34:19.702Z,18.29
2019-05-21T21:36:53.174Z,18.32
2019-05-21T21:39:21.506Z,18.34
2019-05-21T21:41:52.228Z,18.27
2019-05-21T21:44:33.416Z,18.17
2019-05-21T21:46:54.507Z,18.24
2019-05-21T21:49:25.478Z,18.27
2019-05-21T21:51:56.675Z,18.31
2019-05-21T21:54:26.697Z,18.35
2019-05-21T21:56:56.782Z,18.32
2019-05-21T21:59:26.967Z,18.35
2019-05-21T22:02:00.004Z,18.41
2019-05-21T22:04:34.219Z,18.39
2019-05-21T22:07:05.404Z,18.34
2019-05-21T22:09:35.892Z,18.48
2019-05-21T22:12:06.496Z,18.53
2019-05-21T22:14:49.784Z,18.47
2019-05-21T22:17:10.321Z,18.56
2019-05-21T22:19:40.920Z,18.53
2019-05-21T22:22:11.778Z,18.53
2019-05-21T22:24:41.852Z,18.57
2019-05-21T22:27:11.920Z,18.41
2019-05-21T22:29:41.981Z,18.46
2019-05-21T22:32:16.563Z,18.51
2019-05-21T22:34:44.826Z,18.49
2019-05-21T22:37:16.586Z,18.36
2019-05-21T22:39:48.112Z,18.42
2019-05-21T22:42:19.386Z,18.34
2019-05-21T22:44:49.455Z,18.33
2019-05-21T22:47:20.728Z,18.23
2019-05-21T22:49:50.860Z,18.24
2019-05-21T22:52:20.893Z,18.01
2019-05-21T22:54:50.897Z,18.19
2019-05-21T22:57:21.239Z,18.09
2019-05-21T22:59:51.390Z,18.16
2019-05-21T23:02:23.022Z,18.05
2019-05-21T23:04:53.363Z,18.04
2019-05-21T23:07:23.561Z,17.99
2019-05-21T23:09:54.697Z,17.84
2019-05-21T23:12:24.841Z,17.78
2019-05-21T23:14:55.188Z,17.74
2019-05-21T23:17:28.383Z,17.70
2019-05-21T23:20:04.542Z,17.64
2019-05-21T23:22:36.208Z,17.56
2019-05-21T23:25:07.920Z,17.62
2019-05-21T23:27:38.855Z,17.56
2019-05-21T23:30:11.477Z,17.55
2019-05-21T23:32:42.155Z,17.55
2019-05-21T23:35:12.604Z,17.52
2019-05-21T23:37:44.763Z,17.48
2019-05-21T23:40:17.172Z,17.37
2019-05-21T23:42:47.486Z,17.43
2019-05-21T23:45:18.259Z,17.33
2019-05-21T23:47:49.063Z,17.35
2019-05-21T23:50:20.690Z,17.25
2019-05-21T23:52:52.667Z,17.32
2019-05-21T23:55:23.899Z,17.36
2019-05-21T23:57:53.992Z,17.36
